Time;durP1;ratioP1;P1;durP2;ratioP2;P2;SDS_P1;SDS_P2;PMS_P1;PMS_P2;Temp;Humidity;BMP_temperature;BMP_pressure;BME280_temperature;BME280_humidity;BME280_pressure;Samples;Min_cycle;Max_cycle;Signal;HPM_P1;HPM_P2
2022/03/04 00:01:53;;;;;;;24.50;9.70;;;;;;;;;;5016330;28;20046;-72
2022/03/04 00:04:19;;;;;;;24.35;10.68;;;;;;;;;;5015873;28;20044;-71
2022/03/04 00:06:45;;;;;;;21.17;10.63;;;;;;;;;;5015631;28;20042;-72
2022/03/04 00:09:11;;;;;;;24.90;10.43;;;;;;;;;;5014851;28;20049;-71
2022/03/04 00:11:37;;;;;;;23.70;9.98;;;;;;;;;;5023904;28;20484;-71
2022/03/04 00:14:03;;;;;;;23.58;9.80;;;;;;;;;;5035607;28;20049;-71
2022/03/04 00:16:29;;;;;;;21.08;9.40;;;;;;;;;;5037069;28;20045;-73
2022/03/04 00:19:09;;;;;;;22.20;10.05;;;;;;;;;;5055693;28;20057;-72
2022/03/04 00:21:36;;;;;;;23.85;9.70;;;;;;;;;;5054663;28;20106;-72
2022/03/04 00:24:02;;;;;;;25.02;10.18;;;;;;;;;;5054343;28;20045;-71
2022/03/04 00:26:29;;;;;;;21.15;9.63;;;;;;;;;;5054353;28;20381;-71
2022/03/04 00:28:55;;;;;;;23.92;10.85;;;;;;;;;;5054979;28;20107;-71
2022/03/04 00:31:21;;;;;;;23.00;9.70;;;;;;;;;;5053224;28;20051;-71
2022/03/04 00:33:47;;;;;;;24.98;10.65;;;;;;;;;;5053351;28;20040;-72
2022/03/04 00:36:13;;;;;;;23.98;10.63;;;;;;;;;;5074156;28;20045;-72
2022/03/04 00:38:39;;;;;;;25.40;9.93;;;;;;;;;;5074759;28;20051;-72
2022/03/04 00:41:05;;;;;;;24.58;11.18;;;;;;;;;;5056130;28;20131;-71
2022/03/04 00:43:31;;;;;;;25.38;10.80;;;;;;;;;;5056226;28;20129;-71
2022/03/04 00:45:57;;;;;;;27.83;11.82;;;;;;;;;;5074484;28;20076;-71
2022/03/04 00:48:23;;;;;;;25.77;10.80;;;;;;;;;;5074157;28;20080;-71
2022/03/04 00:50:49;;;;;;;30.52;11.43;;;;;;;;;;5074620;28;20040;-71
2022/03/04 00:53:15;;;;;;;28.80;11.85;;;;;;;;;;5073708;28;20047;-71
2022/03/04 00:55:41;;;;;;;31.23;12.02;;;;;;;;;;5074445;28;20051;-72
2022/03/04 00:58:07;;;;;;;26.90;11.38;;;;;;;;;;5074129;28;20044;-72
2022/03/04 01:00:34;;;;;;;23.52;10.52;;;;;;;;;;5074537;28;20380;-72
2022/03/04 01:03:01;;;;;;;25.10;11.07;;;;;;;;;;5076737;28;20051;-72
2022/03/04 01:05:27;;;;;;;28.98;12.02;;;;;;;;;;5074270;28;20052;-72
2022/03/04 01:07:53;;;;;;;30.65;12.25;;;;;;;;;;5074485;28;20044;-72
2022/03/04 01:10:19;;;;;;;28.92;12.95;;;;;;;;;;5056197;28;20048;-72
2022/03/04 01:12:45;;;;;;;30.17;12.00;;;;;;;;;;5055867;28;20044;-72
2022/03/04 01:15:12;;;;;;;30.92;12.70;;;;;;;;;;5056284;28;20560;-72
2022/03/04 01:17:38;;;;;;;30.80;11.75;;;;;;;;;;5074229;28;20041;-72
2022/03/04 01:20:04;;;;;;;31.35;12.10;;;;;;;;;;5074222;28;20072;-72
2022/03/04 01:22:30;;;;;;;25.40;11.70;;;;;;;;;;5074377;28;20049;-71
2022/03/04 01:24:56;;;;;;;33.10;12.90;;;;;;;;;;5056530;28;20395;-71
2022/03/04 01:27:23;;;;;;;25.80;11.30;;;;;;;;;;5056592;28;20048;-71
2022/03/04 01:29:49;;;;;;;28.55;11.95;;;;;;;;;;5056545;28;20072;-71
2022/03/04 01:32:15;;;;;;;29.17;11.40;;;;;;;;;;5056432;28;20044;-71
2022/03/04 01:34:41;;;;;;;27.08;11.75;;;;;;;;;;5072351;28;20440;-71
2022/03/04 01:37:07;;;;;;;32.83;12.77;;;;;;;;;;5073438;28;20414;-71
2022/03/04 01:39:33;;;;;;;27.70;11.27;;;;;;;;;;5073392;28;20555;-71
2022/03/04 01:41:59;;;;;;;28.48;11.13;;;;;;;;;;5073144;28;20072;-71
2022/03/04 01:44:25;;;;;;;33.97;12.88;;;;;;;;;;5055369;28;20071;-71
2022/03/04 01:46:54;;;;;;;28.95;12.20;;;;;;;;;;5055434;28;20080;-71
2022/03/04 01:49:20;;;;;;;30.63;13.10;;;;;;;;;;5055254;28;20143;-72
2022/03/04 01:51:46;;;;;;;31.30;13.05;;;;;;;;;;5072498;28;20059;-72
2022/03/04 01:54:12;;;;;;;37.53;14.70;;;;;;;;;;5073244;28;20064;-71
2022/03/04 01:56:38;;;;;;;30.58;13.10;;;;;;;;;;5073367;28;20123;-72
2022/03/04 01:59:05;;;;;;;31.98;13.35;;;;;;;;;;5073367;28;20048;-71
2022/03/04 02:01:32;;;;;;;26.80;12.05;;;;;;;;;;5073052;28;20115;-72
2022/03/04 02:03:58;;;;;;;33.97;13.02;;;;;;;;;;5073490;28;20480;-72
2022/03/04 02:06:24;;;;;;;28.70;12.35;;;;;;;;;;5072586;28;20123;-72
2022/03/04 02:08:50;;;;;;;40.80;13.55;;;;;;;;;;5072971;28;20055;-72
2022/03/04 02:11:16;;;;;;;35.38;14.60;;;;;;;;;;5054555;28;20048;-72
2022/03/04 02:13:45;;;;;;;44.45;15.13;;;;;;;;;;5054655;28;20047;-72
2022/03/04 02:16:27;;;;;;;33.40;12.43;;;;;;;;;;5075186;28;20523;-71
2022/03/04 02:18:53;;;;;;;36.90;14.23;;;;;;;;;;5076283;28;20042;-71
2022/03/04 02:21:21;;;;;;;35.45;13.93;;;;;;;;;;5076149;28;20507;-71
2022/03/04 02:23:48;;;;;;;33.13;13.82;;;;;;;;;;5076518;28;20048;-71
2022/03/04 02:26:14;;;;;;;41.92;14.82;;;;;;;;;;5076258;28;20048;-71
2022/03/04 02:28:40;;;;;;;37.28;14.00;;;;;;;;;;5076393;28;20048;-71
2022/03/04 02:31:06;;;;;;;42.15;14.98;;;;;;;;;;5058098;28;20040;-71
2022/03/04 02:33:32;;;;;;;35.63;14.07;;;;;;;;;;5075861;28;20110;-71
2022/03/04 02:35:58;;;;;;;46.28;15.23;;;;;;;;;;5057965;28;20113;-71
2022/03/04 02:38:24;;;;;;;35.45;13.88;;;;;;;;;;5076202;28;20036;-71
2022/03/04 02:40:50;;;;;;;36.78;14.20;;;;;;;;;;5076014;28;20067;-71
2022/03/04 02:43:16;;;;;;;33.63;13.05;;;;;;;;;;5076041;28;20049;-71
2022/03/04 02:45:42;;;;;;;39.03;15.27;;;;;;;;;;5076443;28;20147;-71
2022/03/04 02:48:08;;;;;;;33.38;14.25;;;;;;;;;;5075753;28;20094;-71
2022/03/04 02:50:34;;;;;;;41.83;15.32;;;;;;;;;;5076172;28;20076;-70
2022/03/04 02:53:00;;;;;;;44.42;15.32;;;;;;;;;;5075850;28;20044;-70
2022/03/04 02:55:26;;;;;;;36.60;14.20;;;;;;;;;;5057872;28;20052;-71
2022/03/04 02:57:52;;;;;;;40.25;14.77;;;;;;;;;;5076268;28;20137;-71
2022/03/04 03:00:18;;;;;;;43.63;15.88;;;;;;;;;;5075862;28;20052;-71
2022/03/04 03:02:45;;;;;;;46.05;15.85;;;;;;;;;;5075549;28;20058;-71
2022/03/04 03:05:11;;;;;;;39.53;14.80;;;;;;;;;;5075767;28;20045;-71
2022/03/04 03:07:37;;;;;;;42.75;15.23;;;;;;;;;;5075657;28;20044;-71
2022/03/04 03:10:04;;;;;;;40.08;15.27;;;;;;;;;;5075710;28;20403;-71
2022/03/04 03:12:30;;;;;;;45.80;17.52;;;;;;;;;;5075559;28;20045;-71
2022/03/04 03:14:56;;;;;;;47.83;17.90;;;;;;;;;;5075491;28;20040;-71
2022/03/04 03:17:22;;;;;;;50.97;18.08;;;;;;;;;;5075214;28;20047;-71
2022/03/04 03:19:48;;;;;;;47.28;16.88;;;;;;;;;;5075304;28;20380;-71
2022/03/04 03:22:16;;;;;;;45.45;16.27;;;;;;;;;;5057435;28;20053;-72
2022/03/04 03:24:43;;;;;;;44.92;17.08;;;;;;;;;;5057320;28;20090;-71
2022/03/04 03:27:09;;;;;;;43.15;17.05;;;;;;;;;;5057716;28;20059;-71
2022/03/04 03:29:35;;;;;;;44.40;17.10;;;;;;;;;;5075095;28;20045;-72
2022/03/04 03:32:01;;;;;;;47.47;17.35;;;;;;;;;;5074896;28;20040;-71
2022/03/04 03:34:27;;;;;;;52.28;19.30;;;;;;;;;;5074712;28;20048;-70
2022/03/04 03:36:53;;;;;;;47.20;18.00;;;;;;;;;;5074170;28;20101;-71
2022/03/04 03:39:19;;;;;;;44.08;16.60;;;;;;;;;;5075220;28;20045;-71
2022/03/04 03:41:45;;;;;;;48.85;18.27;;;;;;;;;;5075116;28;20041;-71
2022/03/04 03:44:11;;;;;;;49.03;17.80;;;;;;;;;;5074772;28;20052;-72
2022/03/04 03:46:37;;;;;;;48.88;19.17;;;;;;;;;;5074650;28;20141;-71
2022/03/04 03:49:03;;;;;;;49.75;18.45;;;;;;;;;;5075110;28;20036;-72
2022/03/04 03:51:33;;;;;;;46.38;18.17;;;;;;;;;;5075183;28;20048;-71
2022/03/04 03:54:00;;;;;;;45.65;18.27;;;;;;;;;;5058077;28;20498;-72
2022/03/04 03:56:25;;;;;;;51.72;19.25;;;;;;;;;;5056858;28;20056;-71
2022/03/04 03:58:52;;;;;;;52.30;18.02;;;;;;;;;;5056861;28;20450;-71
2022/03/04 04:01:18;;;;;;;42.92;18.13;;;;;;;;;;5057014;28;20419;-72
2022/03/04 04:03:44;;;;;;;43.35;16.75;;;;;;;;;;5073501;28;20044;-71
2022/03/04 04:06:10;;;;;;;45.83;17.40;;;;;;;;;;5074745;28;20044;-73
2022/03/04 04:08:36;;;;;;;41.35;16.15;;;;;;;;;;5074440;28;20041;-71
2022/03/04 04:11:02;;;;;;;46.70;18.08;;;;;;;;;;5074355;28;20048;-71
2022/03/04 04:13:28;;;;;;;46.10;17.88;;;;;;;;;;5056193;28;20504;-71
2022/03/04 04:15:54;;;;;;;45.03;17.08;;;;;;;;;;5074449;28;20040;-71
2022/03/04 04:18:20;;;;;;;46.72;18.38;;;;;;;;;;5075775;28;20040;-71
2022/03/04 04:20:46;;;;;;;50.67;19.73;;;;;;;;;;5074672;28;20095;-72
2022/03/04 04:23:12;;;;;;;46.95;18.30;;;;;;;;;;5074254;28;20072;-72
2022/03/04 04:25:38;;;;;;;51.80;18.75;;;;;;;;;;5074039;28;20055;-72
2022/03/04 04:28:04;;;;;;;50.58;18.33;;;;;;;;;;5072643;28;20049;-71
2022/03/04 04:30:30;;;;;;;48.17;19.65;;;;;;;;;;5074056;28;20102;-71
2022/03/04 04:32:57;;;;;;;49.28;18.17;;;;;;;;;;5074098;28;20044;-71
2022/03/04 04:35:23;;;;;;;44.83;17.38;;;;;;;;;;5073854;28;20059;-71
2022/03/04 04:37:49;;;;;;;51.85;18.45;;;;;;;;;;5073465;28;20052;-71
2022/03/04 04:40:15;;;;;;;47.40;17.95;;;;;;;;;;5073766;28;20045;-71
2022/03/04 04:42:41;;;;;;;51.45;18.23;;;;;;;;;;5073646;28;20044;-71
2022/03/04 04:45:08;;;;;;;41.15;17.25;;;;;;;;;;5073972;28;20119;-71
2022/03/04 04:47:34;;;;;;;46.97;18.75;;;;;;;;;;5055948;28;20051;-71
2022/03/04 04:50:00;;;;;;;48.92;19.38;;;;;;;;;;5072511;28;20049;-72
2022/03/04 04:52:26;;;;;;;50.20;19.63;;;;;;;;;;5073612;28;20032;-71
2022/03/04 04:54:52;;;;;;;44.50;18.02;;;;;;;;;;5073469;28;20059;-72
2022/03/04 04:57:18;;;;;;;43.92;17.33;;;;;;;;;;5073408;28;20050;-72
2022/03/04 04:59:44;;;;;;;49.58;18.70;;;;;;;;;;5073686;28;20059;-71
2022/03/04 05:02:10;;;;;;;49.22;18.23;;;;;;;;;;5073604;28;20041;-71
2022/03/04 05:04:36;;;;;;;44.05;16.65;;;;;;;;;;5073659;28;20094;-71
2022/03/04 05:07:03;;;;;;;45.83;17.75;;;;;;;;;;5073264;28;20430;-72
2022/03/04 05:09:29;;;;;;;44.92;16.95;;;;;;;;;;5055356;28;20049;-71
2022/03/04 05:11:55;;;;;;;40.00;16.75;;;;;;;;;;5055207;28;20046;-72
2022/03/04 05:14:21;;;;;;;41.63;16.38;;;;;;;;;;5073597;28;20041;-72
2022/03/04 05:16:47;;;;;;;47.28;18.35;;;;;;;;;;5073401;28;20449;-71
2022/03/04 05:19:13;;;;;;;44.58;17.75;;;;;;;;;;5073309;28;20048;-72
2022/03/04 05:21:39;;;;;;;41.92;17.13;;;;;;;;;;5073282;28;20047;-72
2022/03/04 05:24:06;;;;;;;48.20;17.85;;;;;;;;;;5073309;28;20048;-71
2022/03/04 05:26:32;;;;;;;43.60;17.25;;;;;;;;;;5072934;28;20036;-72
2022/03/04 05:28:59;;;;;;;48.60;17.58;;;;;;;;;;5055082;28;20399;-71
2022/03/04 05:31:25;;;;;;;43.90;16.17;;;;;;;;;;5055200;28;20557;-70
2022/03/04 05:33:51;;;;;;;45.47;17.60;;;;;;;;;;5073411;28;20044;-70
2022/03/04 05:36:21;;;;;;;44.33;17.15;;;;;;;;;;5072148;28;20098;-71
2022/03/04 05:38:48;;;;;;;46.38;18.20;;;;;;;;;;5072222;28;20082;-71
2022/03/04 05:41:15;;;;;;;47.53;17.38;;;;;;;;;;5072410;28;20122;-71
2022/03/04 05:43:41;;;;;;;42.47;17.45;;;;;;;;;;5072184;28;20053;-72
2022/03/04 05:46:07;;;;;;;41.38;17.27;;;;;;;;;;5072137;28;20040;-73
2022/03/04 05:48:33;;;;;;;43.25;17.40;;;;;;;;;;5072134;28;20036;-71
2022/03/04 05:50:59;;;;;;;42.70;17.15;;;;;;;;;;5074070;28;20384;-70
2022/03/04 05:53:25;;;;;;;39.97;16.85;;;;;;;;;;5075897;28;20051;-71
2022/03/04 05:55:51;;;;;;;41.60;17.60;;;;;;;;;;5075605;28;20044;-72
2022/03/04 05:58:17;;;;;;;54.05;18.85;;;;;;;;;;5075840;28;20036;-72
2022/03/04 06:00:43;;;;;;;47.08;17.40;;;;;;;;;;5057530;28;20453;-72
2022/03/04 06:03:09;;;;;;;53.33;18.10;;;;;;;;;;5058007;28;20094;-72
2022/03/04 06:05:36;;;;;;;43.38;17.42;;;;;;;;;;5075679;28;20392;-72
2022/03/04 06:08:02;;;;;;;70.22;21.75;;;;;;;;;;5075433;28;20483;-73
2022/03/04 06:10:28;;;;;;;42.38;17.33;;;;;;;;;;5075520;28;20032;-72
2022/03/04 06:12:54;;;;;;;120.47;29.42;;;;;;;;;;5075610;28;20047;-72
2022/03/04 06:15:20;;;;;;;76.57;21.92;;;;;;;;;;5075805;28;20124;-73
2022/03/04 06:17:49;;;;;;;50.40;18.65;;;;;;;;;;5075651;28;20041;-72
2022/03/04 06:20:16;;;;;;;68.88;21.20;;;;;;;;;;5075477;28;20408;-72
2022/03/04 06:22:43;;;;;;;48.25;18.67;;;;;;;;;;5075266;28;20044;-72
2022/03/04 06:25:10;;;;;;;92.20;27.30;;;;;;;;;;5076899;28;20486;-73
2022/03/04 06:27:36;;;;;;;90.90;27.77;;;;;;;;;;5076125;28;20056;-72
2022/03/04 06:30:03;;;;;;;50.00;18.10;;;;;;;;;;5075671;28;20123;-73
2022/03/04 06:32:29;;;;;;;62.95;21.52;;;;;;;;;;5075316;28;20438;-74
2022/03/04 06:34:55;;;;;;;63.97;21.58;;;;;;;;;;5039727;28;1018972;-73
2022/03/04 06:37:21;;;;;;;53.65;19.92;;;;;;;;;;5076034;28;20542;-72
2022/03/04 06:39:47;;;;;;;56.25;19.33;;;;;;;;;;5076369;28;20515;-72
2022/03/04 06:42:14;;;;;;;79.75;23.42;;;;;;;;;;5076630;28;20072;-74
2022/03/04 06:44:40;;;;;;;46.63;17.35;;;;;;;;;;5076136;28;20044;-72
2022/03/04 06:47:07;;;;;;;59.25;20.40;;;;;;;;;;5076104;28;20048;-72
2022/03/04 06:49:33;;;;;;;48.63;19.50;;;;;;;;;;5057964;28;20048;-72
2022/03/04 06:51:59;;;;;;;50.10;19.42;;;;;;;;;;5075431;28;20487;-72
2022/03/04 06:54:25;;;;;;;48.33;18.35;;;;;;;;;;5076091;28;20045;-72
2022/03/04 06:56:51;;;;;;;56.17;19.90;;;;;;;;;;5057985;28;20553;-72
2022/03/04 06:59:17;;;;;;;62.03;21.20;;;;;;;;;;5075907;28;20384;-72
2022/03/04 07:01:43;;;;;;;50.83;19.77;;;;;;;;;;5075560;28;20041;-72
2022/03/04 07:04:09;;;;;;;81.80;24.33;;;;;;;;;;5076144;28;20052;-72
2022/03/04 07:06:35;;;;;;;92.53;26.45;;;;;;;;;;5075920;28;20360;-72
2022/03/04 07:09:01;;;;;;;51.30;19.05;;;;;;;;;;5057722;28;20099;-71
2022/03/04 07:11:27;;;;;;;54.13;21.92;;;;;;;;;;5075675;28;20044;-71
2022/03/04 07:13:53;;;;;;;63.47;20.70;;;;;;;;;;5075732;28;20044;-71
2022/03/04 07:16:19;;;;;;;68.85;22.60;;;;;;;;;;5058902;28;20038;-72
2022/03/04 07:18:45;;;;;;;68.60;22.92;;;;;;;;;;5044034;28;20041;-73
2022/03/04 07:21:11;;;;;;;72.78;23.83;;;;;;;;;;5039627;28;20038;-73
2022/03/04 07:23:37;;;;;;;47.53;19.00;;;;;;;;;;5017950;28;20400;-71
2022/03/04 07:26:08;;;;;;;55.58;19.90;;;;;;;;;;5036917;28;20052;-70
2022/03/04 07:28:34;;;;;;;60.45;20.40;;;;;;;;;;5036827;28;20085;-70
2022/03/04 07:31:00;;;;;;;57.75;21.58;;;;;;;;;;5019365;28;20105;-70
2022/03/04 07:33:26;;;;;;;87.03;24.45;;;;;;;;;;5037145;28;20042;-72
2022/03/04 07:35:52;;;;;;;49.92;19.30;;;;;;;;;;5038903;28;20437;-71
2022/03/04 07:38:18;;;;;;;54.13;21.05;;;;;;;;;;5039088;28;20049;-72
2022/03/04 07:40:44;;;;;;;55.15;19.98;;;;;;;;;;5045111;28;20037;-71
2022/03/04 07:43:10;;;;;;;63.85;20.60;;;;;;;;;;5055961;28;20040;-71
2022/03/04 07:45:36;;;;;;;70.20;21.13;;;;;;;;;;5055486;28;20381;-71
2022/03/04 07:48:02;;;;;;;60.22;21.30;;;;;;;;;;5054878;28;20051;-72
2022/03/04 07:50:28;;;;;;;72.90;23.23;;;;;;;;;;5052028;28;20098;-71
2022/03/04 07:52:54;;;;;;;46.08;18.85;;;;;;;;;;5054686;28;20041;-72
2022/03/04 07:55:21;;;;;;;44.83;18.13;;;;;;;;;;5050968;28;20034;-72
2022/03/04 07:57:47;;;;;;;68.05;21.45;;;;;;;;;;5034639;28;20064;-71
2022/03/04 08:00:14;;;;;;;57.08;21.88;;;;;;;;;;5035038;28;20042;-71
2022/03/04 08:02:41;;;;;;;59.63;22.23;;;;;;;;;;5034531;28;20445;-72
2022/03/04 08:05:08;;;;;;;67.97;21.55;;;;;;;;;;5034799;28;20040;-71
2022/03/04 08:07:34;;;;;;;67.30;23.38;;;;;;;;;;5001038;28;20045;-72
2022/03/04 08:10:00;;;;;;;60.60;21.48;;;;;;;;;;5016835;28;20053;-73
2022/03/04 08:12:26;;;;;;;47.83;18.83;;;;;;;;;;5044952;28;20553;-73
2022/03/04 08:14:52;;;;;;;88.20;27.55;;;;;;;;;;5035784;28;20045;-71
2022/03/04 08:17:18;;;;;;;62.38;22.13;;;;;;;;;;5035217;28;20107;-71
2022/03/04 08:19:44;;;;;;;81.45;26.17;;;;;;;;;;5034625;28;20038;-72
2022/03/04 08:22:10;;;;;;;48.58;18.77;;;;;;;;;;5040581;28;20050;-71
2022/03/04 08:24:36;;;;;;;42.28;17.70;;;;;;;;;;5048600;28;20075;-72
2022/03/04 08:27:02;;;;;;;71.88;22.90;;;;;;;;;;5048645;28;20397;-74
2022/03/04 08:29:28;;;;;;;62.35;23.27;;;;;;;;;;5045398;28;20053;-75
2022/03/04 08:31:54;;;;;;;50.05;20.17;;;;;;;;;;5039481;28;20044;-75
2022/03/04 08:34:20;;;;;;;52.80;19.20;;;;;;;;;;5016648;28;20042;-76
2022/03/04 08:36:49;;;;;;;42.60;18.08;;;;;;;;;;5034176;28;20077;-74
2022/03/04 08:39:15;;;;;;;;;;;;;;;;;;5034568;28;20068;-73
2022/03/04 08:41:42;;;;;;;56.63;20.05;;;;;;;;;;5034110;28;19922;-72
2022/03/04 08:44:08;;;;;;;43.80;18.77;;;;;;;;;;5034027;28;20501;-74
2022/03/04 08:46:35;;;;;;;58.13;20.55;;;;;;;;;;5033499;28;20045;-72
2022/03/04 08:49:02;;;;;;;59.53;20.15;;;;;;;;;;5033800;28;20124;-72
2022/03/04 08:51:28;;;;;;;52.35;19.13;;;;;;;;;;5033795;28;20041;-73
2022/03/04 08:53:55;;;;;;;72.53;22.15;;;;;;;;;;5026514;28;20397;-74
2022/03/04 08:56:21;;;;;;;51.60;20.85;;;;;;;;;;5036465;28;20041;-72
2022/03/04 08:58:47;;;;;;;97.13;27.48;;;;;;;;;;5034293;28;20128;-72
2022/03/04 09:01:13;;;;;;;56.22;20.92;;;;;;;;;;5072537;28;20440;-73
2022/03/04 09:03:39;;;;;;;51.53;19.25;;;;;;;;;;5068262;28;20045;-73
2022/03/04 09:06:06;;;;;;;46.28;19.17;;;;;;;;;;5053556;28;20105;-73
2022/03/04 09:08:32;;;;;;;48.55;18.98;;;;;;;;;;5053384;28;20041;-73
2022/03/04 09:10:58;;;;;;;48.60;17.80;;;;;;;;;;5053037;28;20415;-73
2022/03/04 09:13:25;;;;;;;47.90;18.33;;;;;;;;;;5050614;28;20070;-74
2022/03/04 09:15:51;;;;;;;44.75;18.63;;;;;;;;;;5073303;28;20056;-74
2022/03/04 09:18:17;;;;;;;43.42;18.20;;;;;;;;;;5073203;28;20094;-75
2022/03/04 09:20:44;;;;;;;49.45;19.67;;;;;;;;;;5048960;28;20037;-75
2022/03/04 09:23:10;;;;;;;48.50;19.27;;;;;;;;;;5044711;28;20045;-76
2022/03/04 09:25:36;;;;;;;50.78;20.42;;;;;;;;;;5034756;28;20128;-75
2022/03/04 09:28:03;;;;;;;48.70;19.88;;;;;;;;;;5020665;28;20053;-72
2022/03/04 09:30:33;;;;;;;50.70;20.20;;;;;;;;;;5033716;28;20061;-73
2022/03/04 09:32:59;;;;;;;44.40;18.58;;;;;;;;;;5015751;28;20053;-73
2022/03/04 09:35:25;;;;;;;58.08;21.85;;;;;;;;;;5033648;28;20056;-73
2022/03/04 09:37:51;;;;;;;39.08;16.70;;;;;;;;;;5033647;28;20528;-73
2022/03/04 09:40:17;;;;;;;100.18;29.90;;;;;;;;;;5033765;28;20381;-74
2022/03/04 09:42:44;;;;;;;84.13;24.38;;;;;;;;;;5035377;28;20485;-74
2022/03/04 09:45:10;;;;;;;51.85;19.92;;;;;;;;;;5033401;28;20179;-75
2022/03/04 09:47:36;;;;;;;128.85;51.33;;;;;;;;;;5033142;28;20489;-74
2022/03/04 09:50:02;;;;;;;80.18;22.75;;;;;;;;;;5016044;28;20048;-75
2022/03/04 09:52:30;;;;;;;171.15;38.22;;;;;;;;;;5015754;28;20397;-75
2022/03/04 09:54:56;;;;;;;249.50;45.97;;;;;;;;;;5033544;28;20049;-75
2022/03/04 09:57:23;;;;;;;276.17;48.05;;;;;;;;;;5033124;28;20044;-74
2022/03/04 09:59:49;;;;;;;52.63;21.02;;;;;;;;;;5033077;28;20037;-73
2022/03/04 10:02:15;;;;;;;74.70;22.90;;;;;;;;;;5033369;28;20069;-72
2022/03/04 10:04:41;;;;;;;53.72;20.25;;;;;;;;;;5033538;28;20057;-76
2022/03/04 10:07:15;;;;;;;61.67;23.13;;;;;;;;;;5016298;28;20554;-74
2022/03/04 10:09:45;;;;;;;156.85;34.65;;;;;;;;;;5033506;28;20073;-75
2022/03/04 10:12:12;;;;;;;118.18;28.33;;;;;;;;;;5015051;28;20095;-75
2022/03/04 10:14:57;;;;;;;81.75;23.77;;;;;;;;;;5033027;28;20041;-76
2022/03/04 10:17:23;;;;;;;69.50;23.80;;;;;;;;;;5032815;28;20042;-76
2022/03/04 10:19:56;;;;;;;67.90;21.27;;;;;;;;;;5034065;28;20092;-75
2022/03/04 10:22:22;;;;;;;125.65;26.10;;;;;;;;;;5017668;28;20052;-75
2022/03/04 10:24:50;;;;;;;83.22;23.55;;;;;;;;;;5032813;28;20072;-74
2022/03/04 10:27:17;;;;;;;105.20;24.88;;;;;;;;;;5032918;28;20049;-74
2022/03/04 10:29:45;;;;;;;127.57;28.73;;;;;;;;;;5032863;28;20365;-75
2022/03/04 10:32:24;;;;;;;129.70;31.65;;;;;;;;;;5032567;28;20064;-74
2022/03/04 10:35:09;;;;;;;57.22;21.17;;;;;;;;;;5032480;28;20057;-74
2022/03/04 10:37:51;;;;;;;65.43;23.60;;;;;;;;;;5035597;28;20110;-74
2022/03/04 10:40:17;;;;;;;63.28;26.15;;;;;;;;;;5036345;28;20053;-74
2022/03/04 10:42:59;;;;;;;39.72;18.17;;;;;;;;;;5036133;28;20046;-73
2022/03/04 10:45:32;;;;;;;65.65;21.25;;;;;;;;;;5036179;28;20038;-73
2022/03/04 10:47:59;;;;;;;100.30;27.20;;;;;;;;;;5036215;28;20052;-73
2022/03/04 10:50:28;;;;;;;112.60;29.33;;;;;;;;;;5036379;28;20042;-74
2022/03/04 10:52:54;;;;;;;;;;;;;;;;;;5037359;28;20041;-73
2022/03/04 10:55:31;;;;;;;66.38;21.00;;;;;;;;;;5037383;28;19921;-73
2022/03/04 10:57:58;;;;;;;55.80;19.92;;;;;;;;;;5036854;28;20471;-74
2022/03/04 11:00:35;;;;;;;91.55;24.45;;;;;;;;;;5037376;28;20428;-75
2022/03/04 11:03:02;;;;;;;47.08;18.33;;;;;;;;;;5036505;28;20488;-74
2022/03/04 11:05:29;;;;;;;47.78;17.85;;;;;;;;;;5035758;28;20072;-74
2022/03/04 11:07:55;;;;;;;44.80;17.30;;;;;;;;;;5035831;28;20046;-74
2022/03/04 11:10:22;;;;;;;35.90;16.80;;;;;;;;;;5035378;28;20511;-75
2022/03/04 11:12:55;;;;;;;75.45;21.48;;;;;;;;;;5035639;28;20049;-75
2022/03/04 11:15:22;;;;;;;77.07;22.23;;;;;;;;;;5035838;28;20463;-74
2022/03/04 11:17:49;;;;;;;62.03;20.35;;;;;;;;;;5035695;28;20128;-74
2022/03/04 11:20:15;;;;;;;77.07;21.83;;;;;;;;;;5036433;28;20042;-75
2022/03/04 11:22:43;;;;;;;167.32;32.63;;;;;;;;;;5017639;28;20064;-77
2022/03/04 11:25:13;;;;;;;34.13;17.25;;;;;;;;;;5035797;28;20072;-76
2022/03/04 11:27:43;;;;;;;48.55;20.00;;;;;;;;;;5035784;28;20049;-75
2022/03/04 11:30:28;;;;;;;37.60;17.17;;;;;;;;;;5035319;28;20057;-76
2022/03/04 11:33:03;;;;;;;66.00;22.83;;;;;;;;;;5035283;28;20393;-75
2022/03/04 11:35:48;;;;;;;43.80;17.90;;;;;;;;;;5035302;28;20452;-74
2022/03/04 11:38:14;;;;;;;33.47;17.13;;;;;;;;;;5001334;28;20508;-73
2022/03/04 11:40:49;;;;;;;45.75;17.40;;;;;;;;;;5035513;28;20045;-74
2022/03/04 11:43:16;;;;;;;34.90;15.90;;;;;;;;;;5035090;28;20484;-75
2022/03/04 11:45:42;;;;;;;47.70;19.08;;;;;;;;;;5035037;28;20053;-74
2022/03/04 11:48:09;;;;;;;55.78;21.05;;;;;;;;;;5016818;28;20062;-75
2022/03/04 11:50:37;;;;;;;45.97;17.65;;;;;;;;;;5036157;28;20139;-76
2022/03/04 11:53:13;;;;;;;62.47;19.92;;;;;;;;;;5034963;28;20041;-76
2022/03/04 11:55:39;;;;;;;27.70;15.30;;;;;;;;;;5035220;28;20050;-75
2022/03/04 11:58:06;;;;;;;29.70;15.35;;;;;;;;;;5034911;28;20041;-75
2022/03/04 12:00:34;;;;;;;84.32;22.25;;;;;;;;;;5035107;28;20049;-75
2022/03/04 12:03:21;;;;;;;37.67;16.30;;;;;;;;;;5034517;28;20053;-75
2022/03/04 12:05:48;;;;;;;46.28;16.90;;;;;;;;;;5034633;28;20292;-75
2022/03/04 12:08:14;;;;;;;58.85;20.90;;;;;;;;;;5034641;28;20041;-75
2022/03/04 12:10:42;;;;;;;34.35;15.57;;;;;;;;;;5034406;28;20072;-75
2022/03/04 12:13:16;;;;;;;26.42;13.63;;;;;;;;;;5017083;28;20041;-75
2022/03/04 12:15:44;;;;;;;55.95;18.05;;;;;;;;;;5034686;28;20050;-75
2022/03/04 12:18:30;;;;;;;27.45;13.63;;;;;;;;;;5034473;28;20052;-75
2022/03/04 12:20:56;;;;;;;44.45;15.02;;;;;;;;;;5034604;28;20050;-75
2022/03/04 12:23:29;;;;;;;40.47;14.60;;;;;;;;;;5034516;28;20068;-75
2022/03/04 12:25:55;;;;;;;26.30;12.77;;;;;;;;;;5034369;28;20048;-75
2022/03/04 12:28:22;;;;;;;28.77;13.43;;;;;;;;;;5034275;28;20037;-74
2022/03/04 12:31:08;;;;;;;29.00;11.55;;;;;;;;;;5034224;28;20096;-76
2022/03/04 12:33:36;;;;;;;21.38;11.93;;;;;;;;;;5026781;28;20084;-76
2022/03/04 12:36:04;;;;;;;21.55;12.63;;;;;;;;;;5033890;28;20053;-76
2022/03/04 12:38:31;;;;;;;19.77;10.02;;;;;;;;;;5016535;28;20049;-74
2022/03/04 12:40:57;;;;;;;29.83;12.32;;;;;;;;;;5016121;28;20049;-74
2022/03/04 12:43:24;;;;;;;22.95;11.93;;;;;;;;;;5035912;28;20099;-73
2022/03/04 12:45:51;;;;;;;21.48;11.52;;;;;;;;;;5057869;28;20037;-74
2022/03/04 12:48:17;;;;;;;29.98;12.23;;;;;;;;;;5073330;28;20510;-75
2022/03/04 12:50:43;;;;;;;23.63;11.50;;;;;;;;;;5073610;28;20123;-75
2022/03/04 12:53:18;;;;;;;25.90;12.20;;;;;;;;;;5073277;28;20586;-73
2022/03/04 12:55:58;;;;;;;26.25;12.07;;;;;;;;;;5073974;28;20044;-73
2022/03/04 12:58:34;;;;;;;54.67;17.33;;;;;;;;;;5073019;28;20514;-73
2022/03/04 13:01:02;;;;;;;29.92;12.13;;;;;;;;;;5073522;28;20044;-73
2022/03/04 13:03:28;;;;;;;17.38;10.90;;;;;;;;;;5073455;28;20051;-73
2022/03/04 13:05:54;;;;;;;16.75;11.00;;;;;;;;;;5073252;28;20076;-74
2022/03/04 13:08:20;;;;;;;17.10;10.55;;;;;;;;;;5073617;28;20391;-72
2022/03/04 13:10:47;;;;;;;18.75;10.93;;;;;;;;;;5073169;28;20424;-73
2022/03/04 13:13:13;;;;;;;22.52;11.75;;;;;;;;;;5072893;28;20099;-73
2022/03/04 13:15:51;;;;;;;17.92;10.70;;;;;;;;;;5055108;28;20044;-74
2022/03/04 13:18:17;;;;;;;23.25;11.48;;;;;;;;;;5073411;28;20045;-73
2022/03/04 13:21:05;;;;;;;18.58;10.57;;;;;;;;;;5072965;28;20559;-73
2022/03/04 13:23:31;;;;;;;27.17;11.68;;;;;;;;;;5072916;28;20037;-73
2022/03/04 13:26:06;;;;;;;26.65;12.13;;;;;;;;;;5073345;28;20043;-74
2022/03/04 13:28:52;;;;;;;16.33;10.70;;;;;;;;;;5073470;28;20522;-73
2022/03/04 13:31:22;;;;;;;19.52;10.90;;;;;;;;;;5072917;28;20158;-73
2022/03/04 13:33:48;;;;;;;26.73;11.60;;;;;;;;;;5072826;28;20101;-74
2022/03/04 13:36:15;;;;;;;18.30;10.95;;;;;;;;;;5073357;28;20053;-74
2022/03/04 13:38:40;;;;;;;22.83;11.30;;;;;;;;;;5073122;28;20049;-74
2022/03/04 13:41:22;;;;;;;15.50;9.57;;;;;;;;;;5068970;28;20408;-76
2022/03/04 13:43:48;;;;;;;42.85;15.15;;;;;;;;;;5053111;28;20422;-74
2022/03/04 13:46:14;;;;;;;34.60;13.15;;;;;;;;;;5035292;28;20056;-74
2022/03/04 13:48:40;;;;;;;14.68;10.07;;;;;;;;;;5052932;28;20120;-73
2022/03/04 13:51:12;;;;;;;15.95;8.90;;;;;;;;;;5052846;28;20041;-73
2022/03/04 13:53:54;;;;;;;12.27;8.48;;;;;;;;;;5052959;28;20475;-73
2022/03/04 13:56:21;;;;;;;18.67;9.48;;;;;;;;;;5035323;28;20041;-73
2022/03/04 13:58:55;;;;;;;21.00;11.15;;;;;;;;;;5053298;28;20048;-73
2022/03/04 14:01:21;;;;;;;15.45;10.35;;;;;;;;;;5034900;28;20048;-73
2022/03/04 14:03:47;;;;;;;15.15;10.07;;;;;;;;;;5052970;28;20144;-73
2022/03/04 14:06:15;;;;;;;40.92;14.70;;;;;;;;;;5052766;28;20519;-73
2022/03/04 14:08:41;;;;;;;33.53;13.32;;;;;;;;;;5052754;28;20045;-73
2022/03/04 14:11:08;;;;;;;21.70;11.95;;;;;;;;;;5053576;28;20048;-73
2022/03/04 14:13:36;;;;;;;18.70;10.70;;;;;;;;;;5039193;28;20040;-73
2022/03/04 14:16:02;;;;;;;26.27;12.60;;;;;;;;;;5057297;28;20041;-73
2022/03/04 14:18:29;;;;;;;29.45;13.98;;;;;;;;;;5058872;28;20068;-73
2022/03/04 14:20:57;;;;;;;26.70;12.98;;;;;;;;;;5056636;28;20056;-74